Time;durP1;ratioP1;P1;durP2;ratioP2;P2;SDS_P1;SDS_P2;PMS_P1;PMS_P2;Temp;Humidity;BMP_temperature;BMP_pressure;BME280_temperature;BME280_humidity;BME280_pressure;Samples;Min_cycle;Max_cycle;Signal;HPM_P1;HPM_P2
2022/06/23 00:00:26;;;;;;;11.50;7.45;;;16.60;99.90;;;;;;4951759;28;20213;-82
2022/06/23 00:02:55;;;;;;;8.35;6.22;;;16.60;99.90;;;;;;4951600;29;20284;-81
2022/06/23 00:05:25;;;;;;;10.82;6.70;;;16.50;99.90;;;;;;4961623;28;20258;-84
2022/06/23 00:07:57;;;;;;;6.78;6.18;;;16.50;99.90;;;;;;4971217;28;20207;-81
2022/06/23 00:10:25;;;;;;;8.88;5.50;;;16.50;99.90;;;;;;4972658;28;20189;-81
2022/06/23 00:12:52;;;;;;;8.15;6.70;;;16.50;99.90;;;;;;4970977;28;20672;-80
2022/06/23 00:15:27;;;;;;;9.38;7.05;;;16.50;99.90;;;;;;4970184;28;20575;-81
2022/06/23 00:18:00;;;;;;;8.68;6.85;;;16.40;99.90;;;;;;4970733;28;20199;-79
2022/06/23 00:20:32;;;;;;;11.27;6.22;;;16.40;99.90;;;;;;4969624;28;20212;-84
2022/06/23 00:23:12;;;;;;;7.57;6.38;;;16.30;99.90;;;;;;4975778;28;20200;-84
2022/06/23 00:25:44;;;;;;;7.10;6.40;;;16.30;99.90;;;;;;4964031;28;20284;-83
2022/06/23 00:28:21;;;;;;;8.93;6.38;;;16.30;99.90;;;;;;4959359;29;20284;-82
2022/06/23 00:30:53;;;;;;;8.45;6.82;;;16.30;99.90;;;;;;4957846;29;20211;-82
2022/06/23 00:33:23;;;;;;;7.20;6.50;;;16.20;99.90;;;;;;4966872;28;20291;-80
2022/06/23 00:35:51;;;;;;;9.48;6.93;;;16.20;99.90;;;;;;4970555;28;20208;-80
2022/06/23 00:38:27;;;;;;;9.43;6.80;;;16.20;99.90;;;;;;4970558;28;20227;-84
2022/06/23 00:40:55;;;;;;;7.22;6.53;;;16.30;99.90;;;;;;4968653;28;20204;-82
2022/06/23 00:43:23;;;;;;;9.85;7.40;;;16.20;99.90;;;;;;4969223;28;20619;-80
2022/06/23 00:45:56;;;;;;;6.70;5.85;;;16.20;99.90;;;;;;4967526;28;20229;-83
2022/06/23 00:48:30;;;;;;;8.90;6.97;;;16.20;99.90;;;;;;4951827;29;20761;-82
2022/06/23 00:51:09;;;;;;;7.00;6.13;;;16.20;99.90;;;;;;4966552;28;20236;-82
2022/06/23 00:53:45;;;;;;;13.13;7.78;;;16.20;99.90;;;;;;4970655;28;20360;-83
2022/06/23 00:56:26;;;;;;;8.25;7.35;;;16.10;99.90;;;;;;4969887;28;20204;-79
2022/06/23 00:58:59;;;;;;;9.73;7.38;;;16.10;99.90;;;;;;4967502;28;20204;-78
2022/06/23 01:01:37;;;;;;;12.25;7.35;;;16.10;99.90;;;;;;4969353;28;20211;-83
2022/06/23 01:04:09;;;;;;;9.80;7.63;;;16.10;99.90;;;;;;4963218;28;20201;-81
2022/06/23 01:06:40;;;;;;;11.05;7.82;;;16.00;99.90;;;;;;4950545;29;20207;-83
2022/06/23 01:09:24;;;;;;;7.80;6.70;;;16.00;99.90;;;;;;4950464;29;20393;-81
2022/06/23 01:11:55;;;;;;;10.45;7.47;;;16.00;99.90;;;;;;4950625;28;20213;-81
2022/06/23 01:14:34;;;;;;;8.25;7.07;;;16.00;99.90;;;;;;4962855;28;20304;-79
2022/06/23 01:17:08;;;;;;;8.77;7.07;;;16.00;99.90;;;;;;4968922;28;20204;-83
2022/06/23 01:20:02;;;;;;;10.93;7.80;;;16.00;99.90;;;;;;4952611;28;20208;-80
2022/06/23 01:22:51;;;;;;;9.52;7.50;;;16.00;99.90;;;;;;4949596;28;20304;-80
2022/06/23 01:25:38;;;;;;;13.30;7.90;;;15.90;99.90;;;;;;4967243;28;20196;-81
2022/06/23 01:28:11;;;;;;;11.18;8.00;;;15.90;99.90;;;;;;4967785;28;20208;-82
2022/06/23 01:30:45;;;;;;;12.23;8.30;;;15.90;99.90;;;;;;4968149;28;20215;-79
2022/06/23 01:33:18;;;;;;;9.40;7.45;;;15.90;99.90;;;;;;4965775;28;20228;-80
2022/06/23 01:35:53;;;;;;;12.52;8.60;;;15.90;99.90;;;;;;4967079;28;20211;-80
2022/06/23 01:38:25;;;;;;;10.75;7.68;;;15.80;99.90;;;;;;4968735;28;20676;-83
2022/06/23 01:40:57;;;;;;;10.88;8.98;;;15.80;99.90;;;;;;4966113;28;20234;-84
2022/06/23 01:43:32;;;;;;;12.40;8.25;;;15.90;99.90;;;;;;4967897;28;20196;-83
2022/06/23 01:46:03;;;;;;;14.30;9.88;;;15.90;99.90;;;;;;4967302;28;20235;-83
2022/06/23 01:48:53;;;;;;;10.48;8.18;;;15.90;99.90;;;;;;4951615;29;20201;-84
2022/06/23 01:51:23;;;;;;;9.57;7.75;;;15.90;99.90;;;;;;4950489;28;20235;-83
2022/06/23 01:53:52;;;;;;;11.30;9.13;;;15.80;99.90;;;;;;4950806;28;20578;-81
2022/06/23 01:56:30;;;;;;;12.70;9.35;;;15.80;99.90;;;;;;4952510;28;20850;-83
2022/06/23 01:59:06;;;;;;;10.45;8.80;;;15.80;99.90;;;;;;4951128;29;20208;-83
2022/06/23 02:01:46;;;;;;;8.88;7.55;;;15.80;99.90;;;;;;4968373;28;20220;-83
2022/06/23 02:04:19;;;;;;;11.57;8.43;;;15.80;99.90;;;;;;4969586;28;20193;-81
2022/06/23 02:06:52;;;;;;;13.40;10.63;;;15.80;99.90;;;;;;4970270;28;20201;-81
2022/06/23 02:09:25;;;;;;;10.48;9.38;;;15.80;99.90;;;;;;4969499;28;20219;-83
2022/06/23 02:11:54;;;;;;;10.93;8.82;;;15.80;99.90;;;;;;4969964;28;20201;-82
2022/06/23 02:14:44;;;;;;;11.25;9.13;;;15.80;99.90;;;;;;4969466;28;20270;-82
2022/06/23 02:17:19;;;;;;;9.75;8.80;;;15.80;99.90;;;;;;4968997;28;20188;-79
2022/06/23 02:19:50;;;;;;;11.50;10.17;;;15.80;99.90;;;;;;4969066;28;20200;-84
2022/06/23 02:22:22;;;;;;;10.73;9.63;;;15.80;99.90;;;;;;4968060;28;20668;-83
2022/06/23 02:24:53;;;;;;;11.93;10.18;;;15.80;99.90;;;;;;4968680;28;20203;-82
2022/06/23 02:27:25;;;;;;;12.45;9.80;;;15.80;99.90;;;;;;4969125;28;20208;-82
2022/06/23 02:30:07;;;;;;;12.57;9.68;;;15.80;99.90;;;;;;4969459;28;20201;-83
2022/06/23 02:32:48;;;;;;;14.45;10.43;;;15.80;99.90;;;;;;4970039;28;20204;-83
2022/06/23 02:35:24;;;;;;;13.93;10.05;;;15.80;99.90;;;;;;4969590;28;20267;-82
2022/06/23 02:37:58;;;;;;;10.60;9.45;;;15.80;99.90;;;;;;4969237;28;20612;-81
2022/06/23 02:40:31;;;;;;;13.45;9.95;;;15.70;99.90;;;;;;4969797;28;20218;-81
2022/06/23 02:43:02;;;;;;;12.13;10.05;;;15.80;99.90;;;;;;4968976;28;20588;-82
2022/06/23 02:46:08;;;;;;;10.65;9.02;;;15.70;99.90;;;;;;4969172;28;20266;-81
2022/06/23 02:48:58;;;;;;;12.85;9.23;;;15.70;99.90;;;;;;4933180;28;20301;-83
2022/06/23 02:51:42;;;;;;;12.63;11.10;;;15.70;99.90;;;;;;4969346;28;20243;-81
2022/06/23 02:54:30;;;;;;;9.85;8.85;;;15.70;99.90;;;;;;4968664;28;20614;-83
2022/06/23 02:57:21;;;;;;;11.77;10.10;;;15.70;99.90;;;;;;4968973;28;20207;-83
2022/06/23 02:59:54;;;;;;;12.43;9.85;;;15.60;99.90;;;;;;4968558;28;20200;-83
2022/06/23 03:02:30;;;;;;;11.18;8.60;;;15.60;99.90;;;;;;4970469;28;20507;-82
2022/06/23 03:05:06;;;;;;;12.50;9.90;;;15.60;99.90;;;;;;4971989;28;20208;-83
2022/06/23 03:07:40;;;;;;;13.18;9.90;;;15.70;99.90;;;;;;4971944;28;20561;-79
2022/06/23 03:10:12;;;;;;;12.57;9.82;;;15.60;99.90;;;;;;4972397;28;20204;-82
2022/06/23 03:12:44;;;;;;;11.68;9.63;;;15.60;99.90;;;;;;4971346;28;20208;-84
2022/06/23 03:15:16;;;;;;;12.52;9.93;;;15.60;99.90;;;;;;4970259;28;20270;-78
2022/06/23 03:17:50;;;;;;;10.70;9.60;;;15.60;99.90;;;;;;4962861;28;20877;-83
2022/06/23 03:20:37;;;;;;;10.75;9.10;;;15.60;99.90;;;;;;4953779;29;20189;-82
2022/06/23 03:23:09;;;;;;;10.45;9.15;;;15.60;99.90;;;;;;4953603;29;20205;-80
2022/06/23 03:25:42;;;;;;;15.50;9.77;;;15.60;99.90;;;;;;4951899;29;20208;-79
2022/06/23 03:28:16;;;;;;;13.00;9.65;;;15.60;99.90;;;;;;4970877;28;20552;-82
2022/06/23 03:30:49;;;;;;;9.40;8.48;;;15.60;99.90;;;;;;4972539;28;20278;-83
2022/06/23 03:33:22;;;;;;;13.52;9.70;;;15.60;99.90;;;;;;4952851;29;20218;-83
2022/06/23 03:35:55;;;;;;;14.65;9.63;;;15.60;99.90;;;;;;4955103;28;20229;-82
2022/06/23 03:41:38;;;;;;;11.98;9.50;;;15.70;99.90;;;;;;4953802;29;20687;-83
2022/06/23 03:44:16;;;;;;;15.07;10.80;;;15.70;99.90;;;;;;4953941;29;20212;-85
2022/06/23 03:46:52;;;;;;;15.43;9.82;;;15.70;99.90;;;;;;4964783;28;20327;-84
2022/06/23 03:49:29;;;;;;;14.68;10.25;;;15.60;99.90;;;;;;4972728;28;20586;-83
2022/06/23 03:52:02;;;;;;;13.45;9.82;;;15.70;99.90;;;;;;4972961;28;20206;-81
2022/06/23 03:54:45;;;;;;;12.27;10.65;;;15.70;99.90;;;;;;4972461;28;20273;-83
2022/06/23 03:57:19;;;;;;;14.57;9.68;;;15.80;99.90;;;;;;4972199;28;20204;-80
2022/06/23 04:00:01;;;;;;;12.30;9.90;;;15.80;99.90;;;;;;4971945;28;20502;-83
2022/06/23 04:02:32;;;;;;;12.25;8.93;;;15.80;99.90;;;;;;4971724;28;20208;-83
2022/06/23 04:05:09;;;;;;;11.48;10.25;;;15.80;99.90;;;;;;4972072;28;20209;-83
2022/06/23 04:07:46;;;;;;;12.98;9.55;;;15.90;99.90;;;;;;4971262;28;20264;-84
2022/06/23 04:10:15;;;;;;;12.77;10.27;;;15.90;99.90;;;;;;4971952;28;20275;-83
2022/06/23 04:12:45;;;;;;;12.45;10.07;;;15.90;99.90;;;;;;4971677;28;20302;-82
2022/06/23 04:15:18;;;;;;;11.50;9.85;;;15.90;99.90;;;;;;4969992;28;20224;-81
2022/06/23 04:17:48;;;;;;;10.35;9.38;;;15.90;99.90;;;;;;4970843;28;20212;-82
2022/06/23 04:20:17;;;;;;;9.18;8.27;;;16.00;99.90;;;;;;4971323;28;20617;-79
2022/06/23 04:22:49;;;;;;;11.25;8.77;;;16.10;99.90;;;;;;4964343;28;20513;-82
2022/06/23 04:25:21;;;;;;;15.73;10.43;;;16.20;99.90;;;;;;4950894;29;20489;-83
2022/06/23 04:27:51;;;;;;;10.05;8.98;;;16.20;99.90;;;;;;4958558;28;20219;-82
2022/06/23 04:30:27;;;;;;;10.23;9.10;;;16.30;99.90;;;;;;4968795;28;20496;-82
2022/06/23 04:32:56;;;;;;;10.43;8.68;;;16.40;99.90;;;;;;4971245;28;20203;-82
2022/06/23 04:35:28;;;;;;;11.93;9.30;;;16.50;99.90;;;;;;4956082;28;20225;-82
2022/06/23 04:38:05;;;;;;;11.10;9.00;;;16.50;99.90;;;;;;4951332;28;20220;-82
2022/06/23 04:40:37;;;;;;;11.85;9.07;;;16.50;99.90;;;;;;4951867;29;20207;-82
2022/06/23 04:43:16;;;;;;;12.32;8.85;;;16.50;99.90;;;;;;4965836;28;20320;-84
2022/06/23 04:45:51;;;;;;;11.20;8.05;;;16.50;99.90;;;;;;4971458;28;20228;-82
2022/06/23 04:48:24;;;;;;;11.90;9.30;;;16.50;99.90;;;;;;4971329;28;20199;-82
2022/06/23 04:50:57;;;;;;;11.57;8.60;;;16.50;99.90;;;;;;4971044;28;20609;-84
2022/06/23 04:53:38;;;;;;;10.57;7.82;;;16.60;99.90;;;;;;4967544;28;20209;-83
2022/06/23 04:56:12;;;;;;;13.05;8.95;;;16.60;99.90;;;;;;4950947;29;20634;-82
2022/06/23 04:58:45;;;;;;;12.02;9.43;;;16.70;99.90;;;;;;4952117;29;20201;-83
2022/06/23 05:01:15;;;;;;;11.40;9.23;;;16.80;99.90;;;;;;4951798;29;20182;-82
2022/06/23 05:03:48;;;;;;;11.30;9.15;;;16.90;99.90;;;;;;4964888;28;20609;-83
2022/06/23 05:06:22;;;;;;;13.15;8.95;;;17.00;99.90;;;;;;4970762;28;20208;-84
2022/06/23 05:08:51;;;;;;;15.15;9.05;;;17.10;99.90;;;;;;4971268;28;20203;-83
2022/06/23 05:11:25;;;;;;;9.32;8.15;;;17.30;99.90;;;;;;4968990;28;20264;-80
2022/06/23 05:13:58;;;;;;;12.25;9.18;;;17.50;99.90;;;;;;4969436;28;20604;-82
2022/06/23 05:16:28;;;;;;;8.02;7.13;;;17.70;99.90;;;;;;4969967;28;20197;-82
2022/06/23 05:18:59;;;;;;;11.20;8.40;;;18.00;99.90;;;;;;4969278;28;20283;-81
2022/06/23 05:21:29;;;;;;;11.60;7.63;;;18.40;99.90;;;;;;4969504;28;20231;-82
2022/06/23 05:24:02;;;;;;;9.15;6.93;;;18.80;99.90;;;;;;4969337;28;20200;-83
2022/06/23 05:26:32;;;;;;;10.07;7.07;;;19.20;99.90;;;;;;4968344;28;20200;-83
2022/06/23 05:29:02;;;;;;;8.88;7.10;;;19.50;99.90;;;;;;4969184;28;20208;-82
2022/06/23 05:31:34;;;;;;;7.32;6.03;;;19.70;99.90;;;;;;4957858;28;20324;-82
2022/06/23 05:34:08;;;;;;;10.32;6.88;;;20.10;99.90;;;;;;4949422;29;20629;-81
2022/06/23 05:36:44;;;;;;;8.15;6.53;;;20.40;99.90;;;;;;4949894;29;20216;-83
2022/06/23 05:39:18;;;;;;;8.93;6.55;;;20.80;99.90;;;;;;4966780;28;20279;-81
2022/06/23 05:41:51;;;;;;;8.10;5.78;;;21.10;99.90;;;;;;4968734;28;20207;-82
2022/06/23 05:44:23;;;;;;;8.18;6.20;;;21.50;99.90;;;;;;4968198;28;20192;-81
2022/06/23 05:46:51;;;;;;;10.68;5.70;;;21.90;99.90;;;;;;4954141;28;20657;-82
2022/06/23 05:49:23;;;;;;;5.85;4.80;;;22.10;99.90;;;;;;4948684;28;20299;-82
2022/06/23 05:51:54;;;;;;;7.70;5.28;;;22.40;99.90;;;;;;4949296;29;20211;-83
2022/06/23 05:54:29;;;;;;;8.30;5.07;;;22.50;99.90;;;;;;4953071;28;20629;-82
2022/06/23 05:57:05;;;;;;;6.97;5.68;;;22.70;99.90;;;;;;4969469;28;20200;-82
2022/06/23 05:59:53;;;;;;;11.27;5.95;;;22.60;99.90;;;;;;4968362;28;20192;-83
2022/06/23 06:02:27;;;;;;;6.60;4.75;;;22.60;99.90;;;;;;4960746;28;20300;-82
2022/06/23 06:04:56;;;;;;;9.15;4.93;;;23.00;99.90;;;;;;4949888;29;20198;-80
2022/06/23 06:07:28;;;;;;;5.78;4.40;;;23.20;99.90;;;;;;4948079;29;20202;-83
2022/06/23 06:09:57;;;;;;;5.90;5.07;;;23.50;99.90;;;;;;4953433;28;20296;-83
2022/06/23 06:12:28;;;;;;;5.65;4.90;;;23.80;99.90;;;;;;4968024;28;20567;-81
2022/06/23 06:14:59;;;;;;;8.23;4.90;;;23.90;99.90;;;;;;4967704;28;20234;-82
2022/06/23 06:17:29;;;;;;;7.75;4.75;;;24.30;99.90;;;;;;4966760;28;20204;-82
2022/06/23 06:19:59;;;;;;;7.20;5.25;;;24.60;99.90;;;;;;4968110;28;20513;-81
2022/06/23 06:22:43;;;;;;;5.50;4.20;;;24.70;99.90;;;;;;4967266;28;20204;-82
2022/06/23 06:25:19;;;;;;;7.07;4.40;;;24.70;99.90;;;;;;4967204;28;20629;-82
2022/06/23 06:27:46;;;;;;;6.95;4.82;;;24.90;99.90;;;;;;4965443;28;20227;-82
2022/06/23 06:30:16;;;;;;;6.63;4.10;;;25.10;99.90;;;;;;4949153;29;20201;-82
2022/06/23 06:32:44;;;;;;;6.53;4.80;;;25.30;99.90;;;;;;4948360;28;20219;-83
2022/06/23 06:35:23;;;;;;;8.77;4.43;;;25.60;99.90;;;;;;4946775;29;20232;-83
2022/06/23 06:37:53;;;;;;;7.20;4.07;;;25.80;99.90;;;;;;4951690;28;20189;-84
2022/06/23 06:40:22;;;;;;;5.63;4.00;;;26.00;99.90;;;;;;4961478;28;20209;-83
2022/06/23 06:42:53;;;;;;;5.72;3.65;;;25.90;99.90;;;;;;4971886;28;20616;-83
2022/06/23 06:45:23;;;;;;;6.25;4.53;;;26.10;99.90;;;;;;4973114;28;20236;-83
2022/06/23 06:47:50;;;;;;;7.43;4.68;;;26.30;99.90;;;;;;4973096;28;20224;-84
2022/06/23 06:50:31;;;;;;;6.00;3.58;;;26.20;99.90;;;;;;4978238;23;20392;-83
2022/06/23 06:53:00;;;;;;;4.35;3.85;;;26.40;99.90;;;;;;4971701;28;20623;-84
2022/06/23 06:55:34;;;;;;;4.72;3.78;;;26.70;99.90;;;;;;4996798;23;20243;-81
2022/06/23 06:58:09;;;;;;;6.43;3.63;;;26.70;99.90;;;;;;4988370;28;20204;-85
2022/06/23 07:00:42;;;;;;;5.80;3.67;;;26.90;99.90;;;;;;4988576;28;20224;-83
2022/06/23 07:03:13;;;;;;;5.32;4.55;;;27.10;99.90;;;;;;4986818;28;20216;-80
2022/06/23 07:05:43;;;;;;;4.55;3.85;;;27.00;99.90;;;;;;4986968;28;20208;-82
2022/06/23 07:08:18;;;;;;;5.82;3.97;;;27.30;99.90;;;;;;4985730;28;20216;-83
2022/06/23 07:10:50;;;;;;;5.45;3.50;;;27.20;99.90;;;;;;4987847;28;20222;-82
2022/06/23 07:13:22;;;;;;;5.25;3.83;;;27.50;99.90;;;;;;4988454;28;20228;-80
2022/06/23 07:15:54;;;;;;;6.88;3.40;;;27.60;99.90;;;;;;4988929;28;20512;-82
2022/06/23 07:18:25;;;;;;;6.95;4.15;;;28.00;99.90;;;;;;4989564;28;20517;-81
2022/06/23 07:20:59;;;;;;;6.35;3.55;;;28.10;99.90;;;;;;4987753;28;20223;-82
2022/06/23 07:23:31;;;;;;;3.45;3.15;;;28.10;99.90;;;;;;4988441;28;20331;-81
2022/06/23 07:26:15;;;;;;;4.50;2.95;;;28.10;99.90;;;;;;4987542;28;20214;-80
2022/06/23 07:28:46;;;;;;;5.70;3.13;;;28.50;99.90;;;;;;4986812;28;20219;-80
2022/06/23 07:31:18;;;;;;;4.63;4.22;;;28.90;99.90;;;;;;4967427;28;20283;-82
2022/06/23 07:33:50;;;;;;;6.70;4.15;;;29.10;99.90;;;;;;4985202;28;20218;-80
2022/06/23 07:36:25;;;;;;;5.20;3.70;;;29.10;99.90;;;;;;4987856;28;20251;-81
2022/06/23 07:38:58;;;;;;;5.22;3.47;;;29.20;99.90;;;;;;4987848;28;20215;-78
2022/06/23 07:41:35;;;;;;;4.32;3.85;;;29.10;99.90;;;;;;4986126;28;20224;-81
2022/06/23 07:44:06;;;;;;;4.75;3.58;;;29.00;99.90;;;;;;4988347;28;20216;-81
2022/06/23 07:46:36;;;;;;;4.63;3.40;;;28.80;99.90;;;;;;4986159;28;20216;-80
2022/06/23 07:49:04;;;;;;;5.05;4.03;;;28.90;99.90;;;;;;4987194;28;20262;-83
2022/06/23 07:51:31;;;;;;;6.47;4.07;;;29.40;99.90;;;;;;4989150;28;20252;-80
2022/06/23 07:53:58;;;;;;;4.22;2.92;;;29.10;99.90;;;;;;4989546;28;20867;-82
2022/06/23 07:56:29;;;;;;;4.57;3.25;;;29.40;99.90;;;;;;4990312;28;20231;-82
2022/06/23 07:58:59;;;;;;;7.55;4.60;;;29.70;99.90;;;;;;4990811;28;20254;-80
2022/06/23 08:01:30;;;;;;;5.93;4.10;;;30.00;99.90;;;;;;4989716;28;20227;-81
2022/06/23 08:04:03;;;;;;;6.25;3.60;;;30.00;99.90;;;;;;4989260;28;20226;-83
2022/06/23 08:06:32;;;;;;;4.13;3.50;;;30.00;99.90;;;;;;4989443;28;20231;-83
2022/06/23 08:09:03;;;;;;;4.68;3.17;;;29.80;99.90;;;;;;4989804;28;20224;-84
2022/06/23 08:14:23;;;;;;;8.20;4.45;;;29.30;99.90;;;;;;4987585;28;20902;-86
2022/06/23 08:16:49;;;;;;;5.57;4.25;;;29.30;99.90;;;;;;4988945;28;20550;-88
2022/06/23 08:19:31;;;;;;;4.72;4.13;;;29.50;99.90;;;;;;4991141;28;20266;-86
2022/06/23 08:22:08;;;;;;;13.95;6.38;;;29.40;99.90;;;;;;4975796;28;20207;-83
2022/06/23 08:24:38;;;;;;;7.43;5.30;;;29.20;99.90;;;;;;4971502;28;20290;-84
2022/06/23 08:27:11;;;;;;;6.18;4.97;;;29.10;99.90;;;;;;4969793;28;20199;-82
2022/06/23 08:29:42;;;;;;;23.05;6.72;;;28.80;99.90;;;;;;4970001;28;20197;-85
2022/06/23 08:32:10;;;;;;;8.23;3.95;;;28.70;99.90;;;;;;4981911;28;20212;-82
2022/06/23 08:34:41;;;;;;;61.70;10.48;;;29.00;99.90;;;;;;4988866;28;20207;-82
2022/06/23 08:37:14;;;;;;;16.27;4.93;;;28.90;99.90;;;;;;4986385;28;20886;-82
2022/06/23 08:39:49;;;;;;;19.33;5.93;;;29.00;99.90;;;;;;4989452;28;20192;-83
2022/06/23 08:42:22;;;;;;;4.80;3.70;;;29.40;99.90;;;;;;4987606;28;20315;-80
2022/06/23 08:44:57;;;;;;;6.47;3.80;;;29.50;99.90;;;;;;4979601;28;20209;-80
2022/06/23 08:47:34;;;;;;;6.97;4.60;;;29.60;99.90;;;;;;4968830;28;20204;-81
2022/06/23 08:50:08;;;;;;;63.10;8.75;;;29.80;99.90;;;;;;4967421;28;20523;-80
2022/06/23 08:52:40;;;;;;;6.25;3.90;;;30.30;99.90;;;;;;4968928;28;20601;-86
2022/06/23 08:55:14;;;;;;;6.53;4.72;;;30.60;99.90;;;;;;4970079;28;20288;-82
2022/06/23 08:57:48;;;;;;;5.03;4.53;;;30.60;99.90;;;;;;4970582;28;20212;-84
2022/06/23 09:00:22;;;;;;;4.35;2.97;;;30.40;99.90;;;;;;4971640;28;20180;-84
2022/06/23 09:03:04;;;;;;;8.68;4.95;;;30.60;99.90;;;;;;4969270;28;20196;-83
2022/06/23 09:05:40;;;;;;;4.18;3.72;;;30.90;99.90;;;;;;4969949;28;20335;-83
2022/06/23 09:08:16;;;;;;;4.75;3.50;;;31.40;99.90;;;;;;4968791;28;20188;-83
2022/06/23 09:10:52;;;;;;;7.43;4.53;;;31.50;99.90;;;;;;4970786;28;20198;-85
2022/06/23 09:13:36;;;;;;;6.53;4.55;;;31.50;99.90;;;;;;4970165;28;20599;-87
2022/06/23 09:16:25;;;;;;;7.50;3.90;;;31.60;99.90;;;;;;4971649;28;20515;-83
2022/06/23 09:19:24;;;;;;;7.97;4.93;;;31.90;99.90;;;;;;4969259;28;20197;-80
2022/06/23 09:22:08;;;;;;;8.82;4.93;;;32.10;99.90;;;;;;4988015;28;20208;-82
2022/06/23 09:24:57;;;;;;;5.80;4.40;;;32.00;99.90;;;;;;4987792;28;20200;-83
2022/06/23 09:27:44;;;;;;;7.90;4.53;;;31.60;99.90;;;;;;4987630;28;20783;-84
2022/06/23 09:30:20;;;;;;;6.95;5.22;;;31.80;99.90;;;;;;4987261;28;20218;-81
2022/06/23 09:32:58;;;;;;;6.55;4.43;;;31.70;99.90;;;;;;4986084;28;20950;-81
2022/06/23 09:35:47;;;;;;;8.93;5.68;;;31.70;99.90;;;;;;4988592;28;20199;-86
2022/06/23 09:38:34;;;;;;;6.53;4.90;;;31.40;99.90;;;;;;4985829;28;20218;-83
2022/06/23 09:41:11;;;;;;;9.63;5.07;;;31.40;99.90;;;;;;4985814;28;20211;-81
2022/06/23 09:44:14;;;;;;;8.05;5.25;;;31.40;99.90;;;;;;4988028;28;20523;-82
2022/06/23 09:47:05;;;;;;;5.22;3.58;;;31.50;99.90;;;;;;4985877;28;20216;-82
2022/06/23 09:50:04;;;;;;;5.40;4.00;;;31.80;99.90;;;;;;4967107;28;20761;-81
2022/06/23 09:53:07;;;;;;;6.55;4.65;;;31.80;99.90;;;;;;4968756;28;20591;-83
2022/06/23 09:56:15;;;;;;;7.45;4.95;;;32.10;99.90;;;;;;4927247;28;20240;-81
2022/06/23 09:59:17;;;;;;;4.57;3.80;;;32.10;99.90;;;;;;4966620;28;20287;-82
2022/06/23 10:01:49;;;;;;;10.15;6.75;;;32.20;99.90;;;;;;4932056;28;20215;-82
2022/06/23 10:04:29;;;;;;;8.50;6.32;;;31.70;99.90;;;;;;4967811;28;20201;-87
2022/06/23 10:07:26;;;;;;;5.82;5.07;;;31.60;99.90;;;;;;4966582;28;20676;-81
2022/06/23 10:10:05;;;;;;;8.13;5.53;;;31.60;99.90;;;;;;4961973;28;20217;-81
2022/06/23 10:13:01;;;;;;;6.63;4.30;;;31.60;99.90;;;;;;4975968;28;20731;-83
2022/06/23 10:15:44;;;;;;;9.80;6.50;;;31.80;99.90;;;;;;4992805;28;20236;-84
2022/06/23 10:18:30;;;;;;;4.30;3.70;;;31.70;99.90;;;;;;4972994;28;20196;-81
2022/06/23 10:21:16;;;;;;;8.35;6.07;;;32.10;99.90;;;;;;4973104;28;20455;-82
2022/06/23 10:24:14;;;;;;;6.82;5.30;;;32.00;99.90;;;;;;4973569;28;20219;-83
2022/06/23 10:26:53;;;;;;;6.57;4.95;;;32.20;99.90;;;;;;4968936;28;20200;-89
2022/06/23 10:29:42;;;;;;;6.63;4.13;;;32.10;99.90;;;;;;4993225;28;20502;-81
2022/06/23 10:32:31;;;;;;;8.32;5.85;;;32.00;99.90;;;;;;4974276;28;20204;-82
2022/06/23 10:35:12;;;;;;;8.13;5.07;;;31.80;99.90;;;;;;4971382;28;20208;-81
2022/06/23 10:38:18;;;;;;;7.53;5.57;;;32.00;99.90;;;;;;4980320;28;20311;-81
2022/06/23 10:41:25;;;;;;;9.07;6.30;;;32.30;99.90;;;;;;4991420;28;20319;-82
2022/06/23 10:44:18;;;;;;;6.05;5.55;;;32.10;99.90;;;;;;4916173;29;20213;-83
2022/06/23 10:46:53;;;;;;;9.65;6.63;;;32.40;99.90;;;;;;4970627;28;20204;-83
2022/06/23 10:49:53;;;;;;;8.00;5.18;;;32.30;99.90;;;;;;4987799;28;20306;-84
2022/06/23 10:52:44;;;;;;;5.47;4.15;;;32.30;99.90;;;;;;4994076;28;20200;-84
2022/06/23 10:55:28;;;;;;;8.23;4.70;;;32.40;99.90;;;;;;4995502;28;20891;-84
2022/06/23 10:58:28;;;;;;;9.25;5.53;;;32.70;99.90;;;;;;4995887;28;20226;-85
2022/06/23 11:01:14;;;;;;;7.53;4.93;;;32.80;99.90;;;;;;4981244;28;20204;-84
2022/06/23 11:04:13;;;;;;;11.05;6.53;;;33.20;99.90;;;;;;4993721;28;20258;-81
2022/06/23 11:06:59;;;;;;;6.20;4.60;;;32.80;99.90;;;;;;4981443;28;20223;-82
2022/06/23 11:09:43;;;;;;;7.32;5.20;;;33.10;99.90;;;;;;4993685;28;20322;-83
2022/06/23 11:12:28;;;;;;;4.32;3.92;;;33.40;99.90;;;;;;4995045;28;20207;-85
2022/06/23 11:15:07;;;;;;;7.00;5.03;;;33.50;99.90;;;;;;4994539;28;20291;-84
2022/06/23 11:17:49;;;;;;;11.90;7.00;;;33.60;99.90;;;;;;4992486;28;20247;-84
2022/06/23 11:20:28;;;;;;;7.60;4.57;;;33.50;99.90;;;;;;4992749;28;20188;-81
2022/06/23 11:23:01;;;;;;;5.22;4.22;;;33.50;99.90;;;;;;4993364;28;20203;-87
2022/06/23 11:25:50;;;;;;;9.00;6.57;;;33.80;99.90;;;;;;4990264;28;20203;-83
2022/06/23 11:28:28;;;;;;;7.40;5.10;;;33.80;99.90;;;;;;4990038;28;20211;-82
2022/06/23 11:31:06;;;;;;;7.75;4.80;;;33.90;99.90;;;;;;4988914;28;20510;-80
2022/06/23 11:33:47;;;;;;;8.00;5.60;;;33.70;99.90;;;;;;4990706;28;20212;-85
2022/06/23 11:36:23;;;;;;;7.38;6.05;;;33.50;99.90;;;;;;4973086;28;20208;-83
2022/06/23 11:39:12;;;;;;;8.57;5.40;;;33.10;99.90;;;;;;4971806;28;20498;-85
2022/06/23 11:41:54;;;;;;;9.40;6.22;;;33.20;99.90;;;;;;4969018;28;20208;-84
2022/06/23 11:44:37;;;;;;;5.93;4.57;;;33.20;99.90;;;;;;4969848;28;20591;-82
2022/06/23 11:47:20;;;;;;;13.05;6.38;;;33.40;99.90;;;;;;4977328;28;20207;-80
2022/06/23 11:49:58;;;;;;;9.30;5.82;;;33.40;99.90;;;;;;4968556;28;20236;-81
2022/06/23 11:52:44;;;;;;;8.75;6.60;;;33.20;99.90;;;;;;4969564;28;20482;-80
2022/06/23 11:55:23;;;;;;;9.50;6.82;;;33.10;99.90;;;;;;4977085;28;20239;-83
2022/06/23 11:58:26;;;;;;;8.60;6.07;;;32.90;99.90;;;;;;4989596;28;20236;-83
2022/06/23 12:01:06;;;;;;;6.78;5.00;;;33.10;99.90;;;;;;4947782;28;20208;-82
2022/06/23 12:04:00;;;;;;;10.13;5.93;;;33.00;99.90;;;;;;4989784;28;20196;-81
2022/06/23 12:06:36;;;;;;;7.65;5.85;;;32.70;99.90;;;;;;4970533;28;20195;-81
2022/06/23 12:09:12;;;;;;;9.65;8.02;;;33.10;99.90;;;;;;4970195;28;20188;-85
2022/06/23 12:11:40;;;;;;;8.35;6.00;;;33.10;99.90;;;;;;4970569;28;20196;-84
2022/06/23 12:14:08;;;;;;;11.20;6.55;;;33.00;99.90;;;;;;4980810;28;20211;-85
2022/06/23 12:16:41;;;;;;;10.20;6.28;;;33.00;99.90;;;;;;4989989;28;20224;-85
2022/06/23 12:19:13;;;;;;;5.90;4.53;;;33.10;99.90;;;;;;4989281;28;20203;-86
2022/06/23 12:21:48;;;;;;;7.97;5.40;;;33.40;99.90;;;;;;4988804;28;20229;-80
2022/06/23 12:24:23;;;;;;;8.48;5.75;;;33.70;99.90;;;;;;4988669;28;20211;-81
2022/06/23 12:26:59;;;;;;;5.68;4.20;;;33.80;99.90;;;;;;4988688;28;20192;-79
2022/06/23 12:29:35;;;;;;;5.00;3.45;;;34.10;99.90;;;;;;4982242;28;20267;-84
2022/06/23 12:32:11;;;;;;;8.18;4.78;;;34.00;99.90;;;;;;4967185;28;20189;-81
2022/06/23 12:34:44;;;;;;;6.60;4.35;;;33.80;99.90;;;;;;4967460;28;20230;-83
2022/06/23 12:37:24;;;;;;;6.85;3.78;;;33.40;99.90;;;;;;4967812;28;20223;-81
2022/06/23 12:39:57;;;;;;;8.20;4.50;;;33.20;99.90;;;;;;4967745;28;20283;-79
2022/06/23 12:42:31;;;;;;;7.95;5.15;;;32.60;99.90;;;;;;4966823;28;20207;-78
2022/06/23 12:45:12;;;;;;;9.50;4.50;;;32.20;99.90;;;;;;4966973;28;20189;-79
2022/06/23 12:47:52;;;;;;;11.15;5.45;;;32.10;99.90;;;;;;4966608;28;20296;-79
2022/06/23 12:50:44;;;;;;;8.10;5.15;;;32.00;99.90;;;;;;4969368;28;20260;-79
2022/06/23 12:53:29;;;;;;;5.35;4.00;;;32.30;99.90;;;;;;4967538;28;20263;-80
2022/06/23 12:56:09;;;;;;;11.60;4.43;;;32.50;99.90;;;;;;4966068;28;20232;-79
2022/06/23 12:58:39;;;;;;;8.75;5.18;;;32.80;99.90;;;;;;4979491;28;20630;-80
2022/06/23 13:01:11;;;;;;;8.07;5.05;;;33.20;99.90;;;;;;4988081;28;20211;-80
2022/06/23 13:03:51;;;;;;;7.70;4.32;;;33.20;99.90;;;;;;4990954;28;20298;-84
2022/06/23 13:06:28;;;;;;;8.70;4.20;;;33.50;99.90;;;;;;4990407;28;20294;-82
2022/06/23 13:09:04;;;;;;;8.05;4.97;;;33.10;99.90;;;;;;4990578;28;20207;-85
2022/06/23 13:11:40;;;;;;;10.00;4.40;;;32.70;99.90;;;;;;4991354;28;20208;-85
2022/06/23 13:14:13;;;;;;;8.73;4.20;;;32.80;99.90;;;;;;4988533;28;20207;-82
2022/06/23 13:16:48;;;;;;;6.20;3.90;;;32.80;99.90;;;;;;4978122;28;20208;-80
2022/06/23 13:19:22;;;;;;;7.95;4.07;;;33.00;99.90;;;;;;4968518;28;20208;-82
2022/06/23 13:21:50;;;;;;;7.45;4.13;;;33.00;99.90;;;;;;4969171;28;20207;-85
2022/06/23 13:24:19;;;;;;;8.07;3.72;;;33.10;99.90;;;;;;4968094;28;20530;-85
2022/06/23 13:26:52;;;;;;;8.55;3.88;;;33.40;99.90;;;;;;4979969;28;20219;-80
2022/06/23 13:29:22;;;;;;;9.00;4.40;;;33.60;99.90;;;;;;4986614;28;20200;-80
2022/06/23 13:31:53;;;;;;;7.38;3.92;;;33.80;99.90;;;;;;4967384;28;20293;-81
2022/06/23 13:34:28;;;;;;;6.88;3.58;;;33.90;99.90;;;;;;4968143;28;20593;-81
2022/06/23 13:36:59;;;;;;;13.25;3.97;;;33.70;99.90;;;;;;4967964;28;20277;-83